Station Historical Data
Daily Summary for June 4, 2011 Units:  English    Metric   Both
« Previous Day
Next Day »
Daily Weekly Monthly Yearly Custom
  High: Low: Average:
Temperature: 91.8 °F 69.3 °F 81.7 °F
Dew Point: 76.7 °F 67.0 °F 71.3 °F
Humidity: 93% 52% 72%
Wind Speed: 9.0mph 0.0mph 1.8mph
Wind Gust: 12.0mph - -
Wind- - SW
Pressure: 30.12 in 30.03 in -
Precipitation: 0.00 in    
Historical Graphs
 
 
Tabular Data for June 4, 2011
Time Temperature Dew Point Pressure Wind Wind Speed Wind Gust Humidity Rainfall Rate (Hourly) Conditions
00:00 79.0 °F 70.8 °F 30.04 in NE 2.0 mph 3.0 mph 76% 0.00 in
00:05 79.1 °F 70.5 °F 30.04 in NE 3.0 mph 3.0 mph 75% 0.00 in
00:06 79.1 °F 70.5 °F 30.04 in NNE 2.0 mph 3.0 mph 75% 0.00 in
00:07 79.2 °F 70.6 °F 30.04 in NE 2.0 mph 3.0 mph 75% 0.00 in
00:12 79.2 °F 70.6 °F 30.04 in North 1.0 mph 4.0 mph 75% 0.00 in
00:17 79.0 °F 70.8 °F 30.04 in NNE 4.0 mph 4.0 mph 76% 0.00 in
00:22 78.9 °F 70.3 °F 30.04 in NNE 2.0 mph 4.0 mph 75% 0.00 in
00:27 78.7 °F 70.1 °F 30.04 in NE 2.0 mph 4.0 mph 75% 0.00 in
00:32 78.6 °F 70.0 °F 30.04 in NNE 2.0 mph 4.0 mph 75% 0.00 in
00:34 78.6 °F 70.0 °F 30.04 in NNE 2.0 mph 4.0 mph 75% 0.00 in
00:37 78.4 °F 70.2 °F 30.04 in NE 2.0 mph 4.0 mph 76% 0.00 in
00:42 78.2 °F 70.0 °F 30.04 in NNE 2.0 mph 4.0 mph 76% 0.00 in
00:47 77.9 °F 70.1 °F 30.05 in NNE 2.0 mph 3.0 mph 77% 0.00 in
00:52 77.7 °F 69.9 °F 30.05 in NNE 2.0 mph 3.0 mph 77% 0.00 in
00:54 77.6 °F 69.8 °F 30.05 in NE 2.0 mph 3.0 mph 77% 0.00 in
00:58 77.5 °F 69.7 °F 30.05 in NNE 2.0 mph 4.0 mph 77% 0.00 in
01:03 77.4 °F 69.6 °F 30.05 in NE 2.0 mph 4.0 mph 77% 0.00 in
01:08 77.4 °F 69.6 °F 30.05 in NE 3.0 mph 4.0 mph 77% 0.00 in
01:13 77.5 °F 69.3 °F 30.05 in NNE 2.0 mph 3.0 mph 76% 0.00 in
01:18 77.4 °F 69.2 °F 30.05 in NE 2.0 mph 3.0 mph 76% 0.00 in
01:23 77.4 °F 69.2 °F 30.05 in NE 3.0 mph 3.0 mph 76% 0.00 in
01:28 77.3 °F 69.2 °F 30.05 in NNE 2.0 mph 3.0 mph 76% 0.00 in
01:29 77.2 °F 69.1 °F 30.05 in NE 1.0 mph 3.0 mph 76% 0.00 in
01:30 77.2 °F 69.1 °F 30.05 in NE 2.0 mph 2.0 mph 76% 0.00 in
01:34 77.0 °F 69.2 °F 30.05 in NE 1.0 mph 3.0 mph 77% 0.00 in
01:35 77.0 °F 69.2 °F 30.05 in NE 2.0 mph 3.0 mph 77% 0.00 in
01:36 77.0 °F 69.2 °F 30.05 in NE 2.0 mph 3.0 mph 77% 0.00 in
01:40 77.0 °F 68.9 °F 30.05 in NNE 2.0 mph 4.0 mph 76% 0.00 in
01:45 77.2 °F 69.1 °F 30.05 in NE 1.0 mph 3.0 mph 76% 0.00 in
01:50 77.2 °F 69.1 °F 30.04 in NE 2.0 mph 4.0 mph 76% 0.00 in
01:54 77.0 °F 68.9 °F 30.04 in NNE 3.0 mph 3.0 mph 76% 0.00 in
01:55 77.1 °F 69.0 °F 30.04 in ENE 2.0 mph 4.0 mph 76% 0.00 in
01:56 77.0 °F 68.9 °F 30.04 in ENE 1.0 mph 4.0 mph 76% 0.00 in
01:59 76.9 °F 68.8 °F 30.04 in NE 2.0 mph 3.0 mph 76% 0.00 in
02:04 76.9 °F 68.8 °F 30.04 in NE 2.0 mph 3.0 mph 76% 0.00 in
02:09 76.8 °F 68.7 °F 30.04 in NE 2.0 mph 3.0 mph 76% 0.00 in
02:14 76.6 °F 68.9 °F 30.04 in NE 3.0 mph 3.0 mph 77% 0.00 in
02:19 76.6 °F 68.9 °F 30.04 in NE 2.0 mph 4.0 mph 77% 0.00 in
02:24 76.6 °F 68.5 °F 30.04 in NE 2.0 mph 3.0 mph 76% 0.00 in
02:29 76.7 °F 68.6 °F 30.04 in ENE 1.0 mph 3.0 mph 76% 0.00 in
02:30 76.6 °F 68.5 °F 30.04 in ENE 1.0 mph 2.0 mph 76% 0.00 in
02:35 76.5 °F 68.4 °F 30.04 in ENE 2.0 mph 2.0 mph 76% 0.00 in
02:36 76.5 °F 68.4 °F 30.04 in NE 3.0 mph 3.0 mph 76% 0.00 in
02:41 76.4 °F 68.3 °F 30.04 in NNE 1.0 mph 3.0 mph 76% 0.00 in
02:42 76.4 °F 68.3 °F 30.04 in NNE 1.0 mph 3.0 mph 76% 0.00 in
02:47 76.1 °F 68.4 °F 30.04 in NE 2.0 mph 2.0 mph 77% 0.00 in
02:52 75.9 °F 68.6 °F 30.04 in Calm   1.0 mph 78% 0.00 in
02:55 75.6 °F 68.3 °F 30.04 in Calm     78% 0.00 in
02:59 75.3 °F 68.3 °F 30.04 in Calm     79% 0.00 in
03:01 75.0 °F 68.1 °F 30.04 in Calm     79% 0.00 in
03:06 74.4 °F 68.2 °F 30.04 in Calm     81% 0.00 in
03:11 73.6 °F 67.8 °F 30.04 in Calm     82% 0.00 in
03:16 73.0 °F 67.9 °F 30.04 in Calm     84% 0.00 in
03:21 72.5 °F 67.7 °F 30.04 in Calm     85% 0.00 in
03:26 72.2 °F 67.8 °F 30.04 in Calm     86% 0.00 in
03:27 72.1 °F 67.7 °F 30.04 in Calm     86% 0.00 in
03:31 72.1 °F 68.0 °F 30.04 in Calm     87% 0.00 in
03:32 72.2 °F 67.8 °F 30.04 in Calm     86% 0.00 in
03:36 72.9 °F 68.1 °F 30.04 in Calm   1.0 mph 85% 0.00 in
03:37 73.0 °F 68.2 °F 30.04 in Calm   1.0 mph 85% 0.00 in
03:41 72.9 °F 68.1 °F 30.04 in Calm   1.0 mph 85% 0.00 in
03:42 72.8 °F 68.0 °F 30.04 in NE 1.0 mph 1.0 mph 85% 0.00 in
03:47 72.5 °F 67.7 °F 30.04 in Calm   1.0 mph 85% 0.00 in
03:52 72.1 °F 67.7 °F 30.05 in Calm   1.0 mph 86% 0.00 in
03:53 72.0 °F 67.6 °F 30.05 in Calm   1.0 mph 86% 0.00 in
03:54 72.0 °F 67.6 °F 30.05 in Calm   1.0 mph 86% 0.00 in
03:58 71.6 °F 67.5 °F 30.05 in Calm     87% 0.00 in
04:03 71.4 °F 67.3 °F 30.04 in NE 1.0 mph 1.0 mph 87% 0.00 in
04:05 71.4 °F 67.3 °F 30.04 in NE 1.0 mph 1.0 mph 87% 0.00 in
04:09 72.0 °F 67.6 °F 30.04 in NE 2.0 mph 2.0 mph 86% 0.00 in
04:14 72.8 °F 67.7 °F 30.04 in NE 2.0 mph 2.0 mph 84% 0.00 in
04:19 73.2 °F 67.7 °F 30.04 in NE 2.0 mph 2.0 mph 83% 0.00 in
04:24 73.8 °F 67.6 °F 30.04 in ENE 2.0 mph 2.0 mph 81% 0.00 in
04:29 74.4 °F 67.8 °F 30.04 in ENE 1.0 mph 2.0 mph 80% 0.00 in
04:30 74.5 °F 67.9 °F 30.04 in ENE 1.0 mph 2.0 mph 80% 0.00 in
04:32 74.6 °F 67.7 °F 30.04 in East 1.0 mph 2.0 mph 79% 0.00 in
04:35 74.7 °F 67.8 °F 30.04 in ENE 2.0 mph 2.0 mph 79% 0.00 in
04:37 74.8 °F 67.9 °F 30.04 in ENE 2.0 mph 2.0 mph 79% 0.00 in
04:42 74.9 °F 67.9 °F 30.04 in ENE 1.0 mph 2.0 mph 79% 0.00 in
04:47 74.8 °F 67.5 °F 30.04 in East 1.0 mph 1.0 mph 78% 0.00 in
04:53 74.8 °F 67.9 °F 30.04 in NE 2.0 mph 2.0 mph 79% 0.00 in
04:56 74.7 °F 67.8 °F 30.04 in Calm   2.0 mph 79% 0.00 in
05:01 74.6 °F 67.7 °F 30.05 in ENE 1.0 mph 2.0 mph 79% 0.00 in
05:06 74.6 °F 67.7 °F 30.05 in ENE 1.0 mph 3.0 mph 79% 0.00 in
05:11 74.4 °F 67.5 °F 30.04 in ENE 1.0 mph 2.0 mph 79% 0.00 in
05:16 74.0 °F 67.4 °F 30.05 in Calm   1.0 mph 80% 0.00 in
05:21 73.1 °F 67.3 °F 30.05 in Calm   1.0 mph 82% 0.00 in
05:26 72.3 °F 67.5 °F 30.05 in Calm     85% 0.00 in
05:28 72.0 °F 67.2 °F 30.05 in Calm     85% 0.00 in
05:32 71.8 °F 67.4 °F 30.05 in Calm     86% 0.00 in
05:33 71.8 °F 67.1 °F 30.05 in Calm     85% 0.00 in
05:37 71.6 °F 67.2 °F 30.05 in Calm     86% 0.00 in
05:42 71.4 °F 67.3 °F 30.05 in Calm     87% 0.00 in
05:47 71.1 °F 67.0 °F 30.05 in Calm     87% 0.00 in
05:52 70.9 °F 67.2 °F 30.06 in Calm     88% 0.00 in
05:53 70.9 °F 67.2 °F 30.06 in Calm     88% 0.00 in
05:57 70.5 °F 67.1 °F 30.06 in Calm   1.0 mph 89% 0.00 in
05:59 70.3 °F 67.2 °F 30.06 in Calm   1.0 mph 90% 0.00 in
06:04 70.1 °F 67.0 °F 30.06 in Calm     90% 0.00 in
06:09 70.2 °F 67.1 °F 30.06 in Calm     90% 0.00 in
06:14 70.1 °F 67.0 °F 30.06 in Calm     90% 0.00 in
06:19 69.9 °F 67.2 °F 30.07 in Calm     91% 0.00 in
06:20 69.9 °F 67.2 °F 30.07 in Calm     91% 0.00 in
06:25 69.8 °F 67.4 °F 30.07 in Calm     92% 0.00 in
06:26 69.7 °F 67.3 °F 30.07 in Calm     92% 0.00 in
06:29 69.6 °F 67.2 °F 30.07 in Calm     92% 0.00 in
06:33 69.6 °F 67.2 °F 30.07 in Calm     92% 0.00 in
06:34 69.6 °F 67.2 °F 30.08 in Calm     92% 0.00 in
06:36 69.5 °F 67.1 °F 30.08 in Calm     92% 0.00 in
06:41 69.4 °F 67.0 °F 30.08 in Calm     92% 0.00 in
06:42 69.4 °F 67.0 °F 30.08 in Calm     92% 0.00 in
06:47 69.3 °F 67.2 °F 30.08 in Calm     93% 0.00 in
06:52 69.6 °F 67.5 °F 30.08 in Calm     93% 0.00 in
06:57 69.9 °F 67.5 °F 30.08 in Calm     92% 0.00 in
06:58 70.0 °F 67.6 °F 30.08 in Calm     92% 0.00 in
07:02 70.1 °F 67.4 °F 30.08 in Calm     91% 0.00 in
07:07 70.4 °F 67.3 °F 30.09 in Calm     90% 0.00 in
07:12 70.7 °F 67.3 °F 30.09 in Calm     89% 0.00 in
07:13 70.7 °F 67.3 °F 30.09 in Calm     89% 0.00 in
07:18 70.8 °F 67.4 °F 30.09 in Calm     89% 0.00 in
07:23 71.0 °F 67.6 °F 30.09 in Calm     89% 0.00 in
07:28 71.1 °F 67.7 °F 30.09 in Calm     89% 0.00 in
07:33 71.2 °F 67.8 °F 30.09 in Calm     89% 0.00 in
07:34 71.2 °F 67.8 °F 30.09 in Calm     89% 0.00 in
07:36 71.3 °F 67.9 °F 30.09 in Calm     89% 0.00 in
07:40 71.4 °F 68.3 °F 30.10 in Calm     90% 0.00 in
07:42 71.3 °F 68.2 °F 30.10 in Calm     90% 0.00 in
07:45 71.4 °F 68.3 °F 30.10 in Calm     90% 0.00 in
07:47 71.5 °F 68.4 °F 30.10 in Calm     90% 0.00 in
07:52 72.0 °F 67.9 °F 30.10 in Calm     87% 0.00 in
07:57 72.7 °F 67.9 °F 30.10 in Calm     85% 0.00 in
07:59 72.9 °F 68.1 °F 30.10 in Calm     85% 0.00 in
08:02 73.4 °F 67.9 °F 30.10 in NNE 1.0 mph 1.0 mph 83% 0.00 in
08:07 74.0 °F 68.5 °F 30.10 in NNE 1.0 mph 1.0 mph 83% 0.00 in
08:12 74.4 °F 68.6 °F 30.10 in Calm   1.0 mph 82% 0.00 in
08:17 74.8 °F 69.3 °F 30.10 in Calm     83% 0.00 in
08:22 75.2 °F 70.4 °F 30.10 in Calm     85% 0.00 in
08:27 75.6 °F 69.7 °F 30.10 in Calm     82% 0.00 in
08:28 75.8 °F 69.9 °F 30.10 in Calm     82% 0.00 in
08:30 76.0 °F 70.1 °F 30.10 in Calm     82% 0.00 in
08:33 76.3 °F 70.4 °F 30.10 in Calm     82% 0.00 in
08:34 76.4 °F 70.5 °F 30.10 in Calm     82% 0.00 in
08:36 76.9 °F 71.0 °F 30.10 in Calm     82% 0.00 in
08:41 77.7 °F 71.8 °F 30.10 in Calm   1.0 mph 82% 0.00 in
08:46 78.1 °F 71.1 °F 30.10 in Calm   1.0 mph 79% 0.00 in
08:51 78.6 °F 70.0 °F 30.10 in ESE 1.0 mph 1.0 mph 75% 0.00 in
08:52 78.6 °F 70.0 °F 30.10 in East 1.0 mph 1.0 mph 75% 0.00 in
08:53 78.8 °F 70.2 °F 30.10 in ESE 1.0 mph 2.0 mph 75% 0.00 in
08:56 79.1 °F 69.7 °F 30.10 in East 2.0 mph 3.0 mph 73% 0.00 in
08:57 79.1 °F 69.7 °F 30.10 in East 2.0 mph 3.0 mph 73% 0.00 in
08:58 79.1 °F 69.7 °F 30.10 in ENE 2.0 mph 3.0 mph 73% 0.00 in
09:02 79.1 °F 69.3 °F 30.10 in ESE 3.0 mph 4.0 mph 72% 0.00 in
09:03 79.1 °F 68.9 °F 30.10 in East 2.0 mph 3.0 mph 71% 0.00 in
09:07 79.5 °F 69.7 °F 30.11 in East 1.0 mph 2.0 mph 72% 0.00 in
09:12 80.2 °F 70.4 °F 30.11 in Calm     72% 0.00 in
09:13 80.3 °F 70.1 °F 30.11 in East 1.0 mph 1.0 mph 71% 0.00 in
09:18 80.7 °F 68.7 °F 30.11 in East 2.0 mph 2.0 mph 67% 0.00 in
09:23 80.7 °F 67.8 °F 30.11 in ESE 2.0 mph 3.0 mph 65% 0.00 in
09:28 81.0 °F 68.6 °F 30.11 in East 1.0 mph 2.0 mph 66% 0.00 in
09:29 81.0 °F 68.6 °F 30.11 in East 1.0 mph 2.0 mph 66% 0.00 in
09:34 81.6 °F 68.7 °F 30.11 in Calm   1.0 mph 65% 0.00 in
09:36 82.0 °F 69.1 °F 30.11 in Calm   1.0 mph 65% 0.00 in
09:41 82.6 °F 68.7 °F 30.11 in Calm   1.0 mph 63% 0.00 in
09:46 83.3 °F 70.8 °F 30.11 in Calm   1.0 mph 66% 0.00 in
09:51 83.7 °F 70.7 °F 30.11 in NNW 1.0 mph 2.0 mph 65% 0.00 in
09:52 83.7 °F 70.7 °F 30.11 in NNW 1.0 mph 1.0 mph 65% 0.00 in
09:53 83.6 °F 71.1 °F 30.11 in NNW 1.0 mph 1.0 mph 66% 0.00 in
09:57 83.6 °F 70.1 °F 30.12 in NNW 1.0 mph 1.0 mph 64% 0.00 in
10:01 83.6 °F 70.6 °F 30.11 in NNW 1.0 mph 1.0 mph 65% 0.00 in
10:06 84.0 °F 69.1 °F 30.11 in Calm   1.0 mph 61% 0.00 in
10:11 84.4 °F 70.4 °F 30.11 in NW 2.0 mph 2.0 mph 63% 0.00 in
10:16 84.7 °F 71.6 °F 30.11 in Calm   1.0 mph 65% 0.00 in
10:21 85.4 °F 70.9 °F 30.11 in North 1.0 mph 2.0 mph 62% 0.00 in
10:26 85.6 °F 70.6 °F 30.11 in NW 1.0 mph 1.0 mph 61% 0.00 in
10:27 85.6 °F 72.0 °F 30.11 in NNE 2.0 mph 2.0 mph 64% 0.00 in
10:28 85.6 °F 71.1 °F 30.11 in NW 1.0 mph 2.0 mph 62% 0.00 in
10:32 85.5 °F 71.5 °F 30.11 in NNW 1.0 mph 3.0 mph 63% 0.00 in
10:34 85.4 °F 69.4 °F 30.11 in WNW 1.0 mph 3.0 mph 59% 0.00 in
10:36 85.5 °F 69.6 °F 30.11 in Calm   2.0 mph 59% 0.00 in
10:37 85.6 °F 69.1 °F 30.11 in Calm   2.0 mph 58% 0.00 in
10:41 85.9 °F 71.4 °F 30.11 in NW 1.0 mph 2.0 mph 62% 0.00 in
10:46 86.1 °F 71.6 °F 30.11 in NNE 1.0 mph 3.0 mph 62% 0.00 in
10:51 86.4 °F 72.3 °F 30.11 in NNW 1.0 mph 3.0 mph 63% 0.00 in
10:52 86.4 °F 72.3 °F 30.11 in NNW 2.0 mph 3.0 mph 63% 0.00 in
10:54 86.3 °F 72.2 °F 30.11 in WNW 1.0 mph 3.0 mph 63% 0.00 in
10:57 86.2 °F 72.6 °F 30.11 in West 1.0 mph 2.0 mph 64% 0.00 in
11:00 86.2 °F 74.0 °F 30.11 in WNW 2.0 mph 3.0 mph 67% 0.00 in
11:02 86.3 °F 72.2 °F 30.11 in Calm   3.0 mph 63% 0.00 in
11:07 86.5 °F 72.9 °F 30.11 in WNW 2.0 mph 2.0 mph 64% 0.00 in
11:12 86.8 °F 71.8 °F 30.11 in West 2.0 mph 3.0 mph 61% 0.00 in
11:17 87.0 °F 73.4 °F 30.11 in NW 1.0 mph 4.0 mph 64% 0.00 in
11:22 87.3 °F 71.7 °F 30.11 in NW 2.0 mph 2.0 mph 60% 0.00 in
11:23 87.4 °F 72.3 °F 30.11 in WNW 3.0 mph 3.0 mph 61% 0.00 in
11:27 87.2 °F 72.6 °F 30.11 in West 4.0 mph 4.0 mph 62% 0.00 in
11:28 87.2 °F 72.1 °F 30.11 in West 2.0 mph 4.0 mph 61% 0.00 in
11:29 87.1 °F 71.5 °F 30.11 in West 1.0 mph 4.0 mph 60% 0.00 in
11:34 87.2 °F 72.6 °F 30.11 in NW 1.0 mph 4.0 mph 62% 0.00 in
11:35 87.3 °F 72.2 °F 30.11 in West 3.0 mph 3.0 mph 61% 0.00 in
11:38 87.3 °F 73.2 °F 30.11 in West 2.0 mph 3.0 mph 63% 0.00 in
11:41 87.2 °F 74.0 °F 30.11 in NW 1.0 mph 3.0 mph 65% 0.00 in
11:46 87.6 °F 73.0 °F 30.11 in West 1.0 mph 1.0 mph 62% 0.00 in
11:51 87.9 °F 72.8 °F 30.11 in NW 2.0 mph 4.0 mph 61% 0.00 in
11:53 87.8 °F 73.6 °F 30.11 in WNW 3.0 mph 4.0 mph 63% 0.00 in
11:56 87.4 °F 72.3 °F 30.11 in WNW 3.0 mph 4.0 mph 61% 0.00 in
11:57 87.4 °F 71.8 °F 30.11 in WNW 2.0 mph 4.0 mph 60% 0.00 in
11:59 87.3 °F 72.2 °F 30.11 in WNW 3.0 mph 4.0 mph 61% 0.00 in
12:02 87.2 °F 71.6 °F 30.11 in WNW 4.0 mph 4.0 mph 60% 0.00 in
12:07 87.0 °F 71.9 °F 30.11 in WNW 2.0 mph 5.0 mph 61% 0.00 in
12:12 87.0 °F 72.4 °F 30.11 in WNW 2.0 mph 4.0 mph 62% 0.00 in
12:18 87.4 °F 72.3 °F 30.11 in NW 1.0 mph 4.0 mph 61% 0.00 in
12:23 87.8 °F 72.2 °F 30.11 in WNW 3.0 mph 4.0 mph 60% 0.00 in
12:28 88.0 °F 72.9 °F 30.11 in WNW 2.0 mph 4.0 mph 61% 0.00 in
12:29 88.0 °F 72.9 °F 30.11 in WNW 3.0 mph 5.0 mph 61% 0.00 in
12:33 88.0 °F 72.9 °F 30.11 in WNW 3.0 mph 5.0 mph 61% 0.00 in
12:34 87.9 °F 73.7 °F 30.11 in WNW 4.0 mph 5.0 mph 63% 0.00 in
12:36 87.9 °F 71.8 °F 30.11 in WNW 3.0 mph 5.0 mph 59% 0.00 in
12:38 87.9 °F 72.8 °F 30.11 in WNW 4.0 mph 5.0 mph 61% 0.00 in
12:43 88.1 °F 73.0 °F 30.11 in WNW 4.0 mph 5.0 mph 61% 0.00 in
12:44 88.1 °F 73.0 °F 30.11 in West 4.0 mph 5.0 mph 61% 0.00 in
12:49 88.1 °F 73.0 °F 30.11 in NNW 3.0 mph 5.0 mph 61% 0.00 in
12:54 88.8 °F 76.0 °F 30.10 in Calm   3.0 mph 66% 0.00 in
12:59 89.2 °F 74.0 °F 30.10 in WNW 3.0 mph 5.0 mph 61% 0.00 in
13:04 88.9 °F 73.7 °F 30.10 in NW 2.0 mph 6.0 mph 61% 0.00 in
13:09 88.8 °F 73.6 °F 30.10 in West 2.0 mph 6.0 mph 61% 0.00 in
13:10 88.8 °F 73.6 °F 30.10 in West 3.0 mph 6.0 mph 61% 0.00 in
13:14 88.7 °F 73.0 °F 30.10 in WNW 4.0 mph 9.0 mph 60% 0.00 in
13:20 88.8 °F 72.6 °F 30.10 in NNW 5.0 mph 6.0 mph 59% 0.00 in
13:25 88.8 °F 74.1 °F 30.10 in NNW 3.0 mph 6.0 mph 62% 0.00 in
13:30 89.4 °F 76.6 °F 30.09 in NNW 2.0 mph 6.0 mph 66% 0.00 in
13:33 89.4 °F 75.6 °F 30.09 in NNW 3.0 mph 7.0 mph 64% 0.00 in
13:35 89.3 °F 74.1 °F 30.09 in North 2.0 mph 6.0 mph 61% 0.00 in
13:36 89.3 °F 74.1 °F 30.09 in WNW 3.0 mph 5.0 mph 61% 0.00 in
13:39 89.4 °F 75.2 °F 30.09 in West 4.0 mph 9.0 mph 63% 0.00 in
13:41 89.4 °F 75.6 °F 30.09 in WNW 6.0 mph 8.0 mph 64% 0.00 in
13:46 89.2 °F 74.5 °F 30.09 in WNW 4.0 mph 9.0 mph 62% 0.00 in
13:51 89.3 °F 74.6 °F 30.09 in NW 5.0 mph 9.0 mph 62% 0.00 in
13:56 89.4 °F 75.2 °F 30.09 in NW 3.0 mph 7.0 mph 63% 0.00 in
13:57 89.4 °F 75.6 °F 30.09 in NW 2.0 mph 5.0 mph 64% 0.00 in
14:01 89.7 °F 76.4 °F 30.09 in West 2.0 mph 8.0 mph 65% 0.00 in
14:06 89.9 °F 73.7 °F 30.09 in NW 6.0 mph 10.0 mph 59% 0.00 in
14:11 89.7 °F 75.4 °F 30.08 in NW 2.0 mph 7.0 mph 63% 0.00 in
14:16 89.9 °F 74.2 °F 30.08 in NW 5.0 mph 9.0 mph 60% 0.00 in
14:21 89.7 °F 75.0 °F 30.08 in NW 4.0 mph 5.0 mph 62% 0.00 in
14:22 89.6 °F 73.9 °F 30.08 in North 4.0 mph 7.0 mph 60% 0.00 in
14:26 89.7 °F 75.4 °F 30.08 in NW 3.0 mph 7.0 mph 63% 0.00 in
14:27 89.9 °F 75.1 °F 30.08 in NNW 3.0 mph 5.0 mph 62% 0.00 in
14:28 89.9 °F 75.1 °F 30.08 in NNW 4.0 mph 5.0 mph 62% 0.00 in
14:29 90.0 °F 76.7 °F 30.08 in North 4.0 mph 8.0 mph 65% 0.00 in
14:33 90.2 °F 73.4 °F 30.08 in WNW 7.0 mph 9.0 mph 58% 0.00 in
14:34 90.3 °F 74.5 °F 30.08 in North 9.0 mph 9.0 mph 60% 0.00 in
14:39 90.4 °F 74.6 °F 30.08 in NNW 7.0 mph 10.0 mph 60% 0.00 in
14:44 90.5 °F 74.7 °F 30.07 in NW 3.0 mph 8.0 mph 60% 0.00 in
14:49 90.7 °F 76.4 °F 30.07 in NW 6.0 mph 12.0 mph 63% 0.00 in
14:50 90.6 °F 73.3 °F 30.07 in NW 6.0 mph 12.0 mph 57% 0.00 in
14:55 90.6 °F 74.3 °F 30.07 in NNW 7.0 mph 9.0 mph 59% 0.00 in
14:56 90.6 °F 73.8 °F 30.07 in NNW 4.0 mph 9.0 mph 58% 0.00 in
15:00 90.8 °F 74.0 °F 30.07 in NNW 8.0 mph 12.0 mph 58% 0.00 in
15:01 90.8 °F 73.5 °F 30.07 in NW 8.0 mph 12.0 mph 57% 0.00 in
15:06 90.8 °F 74.0 °F 30.07 in WNW 3.0 mph 8.0 mph 58% 0.00 in
15:11 91.1 °F 72.2 °F 30.07 in NNW 7.0 mph 9.0 mph 54% 0.00 in
15:16 91.0 °F 73.7 °F 30.07 in NNW 6.0 mph 11.0 mph 57% 0.00 in
15:21 90.9 °F 73.0 °F 30.06 in NNW 6.0 mph 8.0 mph 56% 0.00 in
15:26 91.0 °F 74.2 °F 30.06 in North 3.0 mph 9.0 mph 58% 0.00 in
15:27 91.1 °F 74.3 °F 30.06 in NW 4.0 mph 7.0 mph 58% 0.00 in
15:30 91.3 °F 73.4 °F 30.06 in NNW 7.0 mph 8.0 mph 56% 0.00 in
15:31 91.3 °F 74.5 °F 30.06 in NW 2.0 mph 8.0 mph 58% 0.00 in
15:36 91.8 °F 74.9 °F 30.06 in NNW 4.0 mph 7.0 mph 58% 0.00 in
15:41 91.7 °F 74.3 °F 30.06 in NW 6.0 mph 10.0 mph 57% 0.00 in
15:42 91.6 °F 73.7 °F 30.06 in NW 4.0 mph 10.0 mph 56% 0.00 in
15:47 91.6 °F 73.7 °F 30.06 in NE 6.0 mph 7.0 mph 56% 0.00 in
15:52 91.6 °F 72.6 °F 30.06 in NNW 5.0 mph 6.0 mph 54% 0.00 in
15:57 91.3 °F 72.3 °F 30.06 in NW 6.0 mph 10.0 mph 54% 0.00 in
15:58 91.3 °F 72.3 °F 30.06 in NW 4.0 mph 10.0 mph 54% 0.00 in
16:03 91.4 °F 75.1 °F 30.06 in NNW 5.0 mph 6.0 mph 59% 0.00 in
16:04 91.3 °F 72.3 °F 30.06 in NNW 4.0 mph 9.0 mph 54% 0.00 in
16:08 91.2 °F 71.7 °F 30.05 in NNW 4.0 mph 9.0 mph 53% 0.00 in
16:10 91.2 °F 71.1 °F 30.05 in NW 4.0 mph 9.0 mph 52% 0.00 in
16:13 91.3 °F 72.3 °F 30.05 in NNE 5.0 mph 9.0 mph 54% 0.00 in
16:18 91.6 °F 72.6 °F 30.05 in NNW 5.0 mph 8.0 mph 54% 0.00 in
16:23 91.7 °F 74.3 °F 30.05 in WNW 3.0 mph 6.0 mph 57% 0.00 in
16:28 91.8 °F 74.9 °F 30.05 in West 6.0 mph 8.0 mph 58% 0.00 in
16:29 91.8 °F 74.9 °F 30.05 in WNW 4.0 mph 7.0 mph 58% 0.00 in
16:31 91.6 °F 72.1 °F 30.05 in NW 8.0 mph 8.0 mph 53% 0.00 in
16:34 91.4 °F 73.0 °F 30.05 in WNW 4.0 mph 8.0 mph 55% 0.00 in
16:35 91.3 °F 72.9 °F 30.05 in NW 5.0 mph 8.0 mph 55% 0.00 in
16:38 91.2 °F 72.8 °F 30.05 in NW 6.0 mph 7.0 mph 55% 0.00 in
16:43 91.1 °F 73.8 °F 30.05 in NW 5.0 mph 9.0 mph 57% 0.00 in
16:48 91.2 °F 73.8 °F 30.05 in North 7.0 mph 7.0 mph 57% 0.00 in
16:53 91.1 °F 72.7 °F 30.04 in NNW 5.0 mph 9.0 mph 55% 0.00 in
16:54 91.1 °F 72.7 °F 30.04 in North 7.0 mph 9.0 mph 55% 0.00 in
16:59 91.0 °F 73.7 °F 30.05 in NNW 6.0 mph 7.0 mph 57% 0.00 in
17:04 91.2 °F 72.2 °F 30.04 in NNW 3.0 mph 6.0 mph 54% 0.00 in
17:09 91.0 °F 70.9 °F 30.04 in NNW 7.0 mph 9.0 mph 52% 0.00 in
17:14 90.9 °F 70.8 °F 30.04 in NW 6.0 mph 9.0 mph 52% 0.00 in
17:19 91.0 °F 71.5 °F 30.04 in NW 7.0 mph 8.0 mph 53% 0.00 in
17:24 91.0 °F 72.1 °F 30.04 in NNW 4.0 mph 6.0 mph 54% 0.00 in
17:29 91.0 °F 71.5 °F 30.04 in NNW 3.0 mph 6.0 mph 53% 0.00 in
17:30 91.0 °F 71.5 °F 30.04 in NW 5.0 mph 6.0 mph 53% 0.00 in
17:34 90.9 °F 72.0 °F 30.04 in NW 7.0 mph 7.0 mph 54% 0.00 in
17:36 90.8 °F 71.3 °F 30.03 in NNW 9.0 mph 9.0 mph 53% 0.00 in
17:39 90.7 °F 74.4 °F 30.04 in WNW 2.0 mph 9.0 mph 59% 0.00 in
17:44 91.0 °F 72.1 °F 30.04 in NW 6.0 mph 7.0 mph 54% 0.00 in
17:49 90.8 °F 70.8 °F 30.04 in NW 3.0 mph 6.0 mph 52% 0.00 in
17:54 90.9 °F 73.6 °F 30.04 in NNW 3.0 mph 5.0 mph 57% 0.00 in
17:55 90.9 °F 72.5 °F 30.04 in North 3.0 mph 5.0 mph 55% 0.00 in
17:58 90.8 °F 71.9 °F 30.04 in NNW 4.0 mph 6.0 mph 54% 0.00 in
18:00 90.6 °F 71.1 °F 30.04 in NW 4.0 mph 6.0 mph 53% 0.00 in
18:05 90.4 °F 70.4 °F 30.04 in NW 4.0 mph 8.0 mph 52% 0.00 in
18:06 90.4 °F 70.4 °F 30.04 in NW 4.0 mph 8.0 mph 52% 0.00 in
18:10 90.3 °F 72.5 °F 30.04 in NNW 5.0 mph 6.0 mph 56% 0.00 in
18:11 90.3 °F 70.9 °F 30.04 in NNW 5.0 mph 6.0 mph 53% 0.00 in
18:15 90.3 °F 73.0 °F 30.03 in NW 3.0 mph 4.0 mph 57% 0.00 in
18:20 90.3 °F 71.9 °F 30.03 in NNW 3.0 mph 4.0 mph 55% 0.00 in
18:25 90.2 °F 72.4 °F 30.03 in NNW 2.0 mph 5.0 mph 56% 0.00 in
18:26 90.3 °F 72.5 °F 30.03 in NNW 3.0 mph 3.0 mph 56% 0.00 in
18:27 90.2 °F 72.4 °F 30.03 in NW 2.0 mph 6.0 mph 56% 0.00 in
18:32 89.9 °F 72.1 °F 30.03 in NW 3.0 mph 5.0 mph 56% 0.00 in
18:33 89.9 °F 72.1 °F 30.03 in NW 2.0 mph 5.0 mph 56% 0.00 in
18:34 89.8 °F 72.6 °F 30.03 in NW 3.0 mph 5.0 mph 57% 0.00 in
18:38 89.7 °F 73.0 °F 30.03 in NW 2.0 mph 5.0 mph 58% 0.00 in
18:43 89.5 °F 72.8 °F 30.03 in West 3.0 mph 5.0 mph 58% 0.00 in
18:48 89.3 °F 73.1 °F 30.03 in NW 2.0 mph 4.0 mph 59% 0.00 in
18:53 89.3 °F 73.6 °F 30.03 in NW 2.0 mph 4.0 mph 60% 0.00 in
18:54 89.3 °F 73.1 °F 30.03 in WNW 2.0 mph 4.0 mph 59% 0.00 in
18:58 89.1 °F 72.9 °F 30.03 in NW 2.0 mph 5.0 mph 59% 0.00 in
18:59 89.0 °F 72.8 °F 30.03 in NW 2.0 mph 5.0 mph 59% 0.00 in
19:04 88.8 °F 73.6 °F 30.03 in WNW 1.0 mph 3.0 mph 61% 0.00 in
19:09 88.6 °F 73.4 °F 30.03 in WNW 3.0 mph 4.0 mph 61% 0.00 in
19:14 88.5 °F 73.3 °F 30.03 in NW 4.0 mph 4.0 mph 61% 0.00 in
19:19 88.4 °F 74.2 °F 30.03 in NW 1.0 mph 3.0 mph 63% 0.00 in
19:24 88.2 °F 74.5 °F 30.03 in WNW 1.0 mph 3.0 mph 64% 0.00 in
19:29 88.0 °F 74.3 °F 30.03 in WNW 2.0 mph 2.0 mph 64% 0.00 in
19:30 88.0 °F 74.3 °F 30.03 in WNW 1.0 mph 2.0 mph 64% 0.00 in
19:35 87.8 °F 74.1 °F 30.03 in WNW 1.0 mph 2.0 mph 64% 0.00 in
19:36 87.7 °F 74.5 °F 30.03 in WNW 1.0 mph 2.0 mph 65% 0.00 in
19:37 87.7 °F 74.5 °F 30.03 in WNW 1.0 mph 2.0 mph 65% 0.00 in
19:42 87.5 °F 74.8 °F 30.03 in NW 1.0 mph 2.0 mph 66% 0.00 in
19:47 87.2 °F 74.5 °F 30.03 in NW 1.0 mph 2.0 mph 66% 0.00 in
19:52 86.9 °F 74.6 °F 30.03 in NW 1.0 mph 2.0 mph 67% 0.00 in
19:57 86.7 °F 74.4 °F 30.03 in NW 1.0 mph 2.0 mph 67% 0.00 in
19:58 86.7 °F 74.4 °F 30.03 in NW 1.0 mph 2.0 mph 67% 0.00 in
20:03 86.4 °F 74.6 °F 30.03 in NW 1.0 mph 2.0 mph 68% 0.00 in
20:05 86.3 °F 74.5 °F 30.03 in Calm   1.0 mph 68% 0.00 in
20:08 86.2 °F 74.0 °F 30.03 in NW 1.0 mph 1.0 mph 67% 0.00 in
20:13 86.0 °F 74.7 °F 30.03 in Calm   1.0 mph 69% 0.00 in
20:18 85.7 °F 74.4 °F 30.03 in NW 1.0 mph 1.0 mph 69% 0.00 in
20:23 85.4 °F 74.5 °F 30.03 in Calm     70% 0.00 in
20:28 84.9 °F 74.9 °F 30.03 in NW 1.0 mph 1.0 mph 72% 0.00 in
20:29 84.8 °F 75.2 °F 30.03 in NW 1.0 mph 1.0 mph 73% 0.00 in
20:34 84.2 °F 75.4 °F 30.03 in NW 1.0 mph 1.0 mph 75% 0.00 in
20:35 84.2 °F 75.4 °F 30.03 in Calm   1.0 mph 75% 0.00 in
20:37 83.9 °F 75.1 °F 30.03 in Calm   1.0 mph 75% 0.00 in
20:39 83.6 °F 75.2 °F 30.03 in Calm   1.0 mph 76% 0.00 in
20:44 83.0 °F 75.1 °F 30.03 in Calm     77% 0.00 in
20:49 82.6 °F 74.7 °F 30.03 in Calm     77% 0.00 in
20:54 82.5 °F 74.2 °F 30.04 in Calm   1.0 mph 76% 0.00 in
20:55 82.5 °F 74.2 °F 30.04 in Calm   1.0 mph 76% 0.00 in
20:56 82.4 °F 74.1 °F 30.04 in Calm     76% 0.00 in
21:00 82.2 °F 74.3 °F 30.04 in Calm     77% 0.00 in
21:02 81.9 °F 74.0 °F 30.04 in Calm     77% 0.00 in
21:07 81.5 °F 73.6 °F 30.04 in NW 1.0 mph 1.0 mph 77% 0.00 in
21:12 81.4 °F 73.5 °F 30.04 in Calm   1.0 mph 77% 0.00 in
21:17 81.0 °F 73.1 °F 30.04 in Calm   1.0 mph 77% 0.00 in
21:22 81.0 °F 72.7 °F 30.04 in Calm   1.0 mph 76% 0.00 in
21:23 81.0 °F 72.7 °F 30.04 in Calm   1.0 mph 76% 0.00 in
21:28 80.6 °F 72.7 °F 30.03 in Calm     77% 0.00 in
21:29 80.5 °F 72.6 °F 30.04 in Calm     77% 0.00 in
21:34 79.8 °F 72.3 °F 30.03 in Calm     78% 0.00 in
21:35 79.7 °F 72.6 °F 30.03 in Calm     79% 0.00 in
21:36 79.6 °F 73.6 °F 30.03 in Calm     82% 0.00 in
21:40 79.2 °F 73.9 °F 30.03 in Calm     84% 0.00 in
21:45 78.7 °F 73.5 °F 30.03 in Calm     84% 0.00 in
21:51 78.3 °F 73.4 °F 30.03 in Calm     85% 0.00 in
21:52 78.2 °F 73.3 °F 30.03 in Calm     85% 0.00 in
21:56 78.0 °F 73.1 °F 30.03 in Calm     85% 0.00 in
21:58 78.0 °F 73.5 °F 30.03 in Calm     86% 0.00 in
22:02 77.7 °F 72.8 °F 30.03 in Calm     85% 0.00 in
22:03 77.6 °F 72.7 °F 30.03 in Calm     85% 0.00 in
22:08 77.2 °F 72.7 °F 30.03 in Calm     86% 0.00 in
22:13 76.6 °F 72.4 °F 30.03 in Calm     87% 0.00 in
22:19 76.2 °F 72.4 °F 30.03 in Calm     88% 0.00 in
22:24 76.0 °F 72.5 °F 30.03 in Calm     89% 0.00 in
22:29 75.8 °F 72.3 °F 30.04 in Calm     89% 0.00 in
22:34 75.6 °F 72.5 °F 30.04 in NW 1.0 mph 1.0 mph 90% 0.00 in
22:35 75.5 °F 72.4 °F 30.04 in NW 1.0 mph 1.0 mph 90% 0.00 in
22:39 75.3 °F 72.5 °F 30.04 in Calm   1.0 mph 91% 0.00 in
22:44 75.5 °F 72.7 °F 30.04 in Calm     91% 0.00 in
22:49 75.4 °F 72.6 °F 30.04 in Calm     91% 0.00 in
22:54 75.4 °F 72.6 °F 30.04 in Calm     91% 0.00 in
22:55 75.4 °F 72.6 °F 30.04 in Calm     91% 0.00 in
22:59 75.4 °F 72.6 °F 30.04 in Calm     91% 0.00 in
23:04 75.3 °F 72.8 °F 30.04 in Calm     92% 0.00 in
23:09 75.3 °F 72.8 °F 30.04 in Calm     92% 0.00 in
23:14 75.6 °F 72.8 °F 30.04 in Calm   1.0 mph 91% 0.00 in
23:19 75.6 °F 72.8 °F 30.04 in NW 1.0 mph 1.0 mph 91% 0.00 in
23:24 75.6 °F 73.1 °F 30.05 in NNW 1.0 mph 1.0 mph 92% 0.00 in
23:29 75.4 °F 72.9 °F 30.04 in NNW 1.0 mph 1.0 mph 92% 0.00 in
23:32 75.6 °F 72.8 °F 30.04 in NNW 1.0 mph 1.0 mph 91% 0.00 in
23:34 75.7 °F 72.9 °F 30.05 in NNW 1.0 mph 1.0 mph 91% 0.00 in
23:35 75.8 °F 73.0 °F 30.05 in Calm   1.0 mph 91% 0.00 in
23:37 75.9 °F 72.8 °F 30.05 in Calm   1.0 mph 90% 0.00 in
23:42 75.9 °F 72.8 °F 30.05 in Calm     90% 0.00 in
23:47 75.7 °F 72.6 °F 30.05 in Calm     90% 0.00 in
23:52 75.7 °F 72.9 °F 30.05 in Calm     91% 0.00 in
23:53 75.6 °F 72.8 °F 30.05 in Calm     91% 0.00 in
23:54 75.6 °F 72.8 °F 30.05 in Calm     91% 0.00 in
23:58 75.5 °F 72.4 °F 30.05 in Calm     90% 0.00 in
23:59 75.4 °F 72.3 °F 30.05 in Calm     90% 0.00 in
Compliments of Weather Underground